sensor_id;sensor_type;location;lat;lon;timestamp;temperature;humidity
68766;DHT22;55756;45.582;11.484;2022-07-23T00:01:35;28.70;47.80
68766;DHT22;55756;45.582;11.484;2022-07-23T00:04:02;28.70;47.70
68766;DHT22;55756;45.582;11.484;2022-07-23T00:06:27;28.70;47.50
68766;DHT22;55756;45.582;11.484;2022-07-23T00:08:53;28.70;47.50
68766;DHT22;55756;45.582;11.484;2022-07-23T00:11:20;28.70;47.60
68766;DHT22;55756;45.582;11.484;2022-07-23T00:13:47;28.70;48.00
68766;DHT22;55756;45.582;11.484;2022-07-23T00:16:13;28.60;48.10
68766;DHT22;55756;45.582;11.484;2022-07-23T00:18:39;28.60;48.10
68766;DHT22;55756;45.582;11.484;2022-07-23T00:21:05;28.60;48.10
68766;DHT22;55756;45.582;11.484;2022-07-23T00:23:31;28.60;48.10
68766;DHT22;55756;45.582;11.484;2022-07-23T00:25:57;28.50;48.10
68766;DHT22;55756;45.582;11.484;2022-07-23T00:28:22;28.50;48.30
68766;DHT22;55756;45.582;11.484;2022-07-23T00:30:48;28.40;48.50
68766;DHT22;55756;45.582;11.484;2022-07-23T00:33:14;28.40;48.60
68766;DHT22;55756;45.582;11.484;2022-07-23T00:35:40;28.40;48.50
68766;DHT22;55756;45.582;11.484;2022-07-23T00:38:09;28.40;48.50
68766;DHT22;55756;45.582;11.484;2022-07-23T00:40:35;28.50;48.50
68766;DHT22;55756;45.582;11.484;2022-07-23T00:43:01;28.40;48.80
68766;DHT22;55756;45.582;11.484;2022-07-23T00:45:28;28.40;48.90
68766;DHT22;55756;45.582;11.484;2022-07-23T00:47:54;28.40;48.30
68766;DHT22;55756;45.582;11.484;2022-07-23T00:50:20;28.40;48.10
68766;DHT22;55756;45.582;11.484;2022-07-23T00:52:46;28.50;47.30
68766;DHT22;55756;45.582;11.484;2022-07-23T00:55:13;28.50;47.00
68766;DHT22;55756;45.582;11.484;2022-07-23T00:57:40;28.50;46.90
68766;DHT22;55756;45.582;11.484;2022-07-23T01:00:09;28.50;47.20
68766;DHT22;55756;45.582;11.484;2022-07-23T01:02:37;28.50;47.20
68766;DHT22;55756;45.582;11.484;2022-07-23T01:05:03;28.50;47.00
68766;DHT22;55756;45.582;11.484;2022-07-23T01:07:29;28.40;47.90
68766;DHT22;55756;45.582;11.484;2022-07-23T01:09:55;28.40;48.60
68766;DHT22;55756;45.582;11.484;2022-07-23T01:12:21;28.30;48.90
68766;DHT22;55756;45.582;11.484;2022-07-23T01:14:55;28.10;49.20
68766;DHT22;55756;45.582;11.484;2022-07-23T01:17:21;28.00;49.30
68766;DHT22;55756;45.582;11.484;2022-07-23T01:19:46;27.90;49.30
68766;DHT22;55756;45.582;11.484;2022-07-23T01:22:13;27.80;49.40
68766;DHT22;55756;45.582;11.484;2022-07-23T01:24:40;27.70;49.50
68766;DHT22;55756;45.582;11.484;2022-07-23T01:27:06;27.70;49.40
68766;DHT22;55756;45.582;11.484;2022-07-23T01:29:35;27.60;49.30
68766;DHT22;55756;45.582;11.484;2022-07-23T01:32:06;27.60;49.40
68766;DHT22;55756;45.582;11.484;2022-07-23T01:34:31;27.60;49.50
68766;DHT22;55756;45.582;11.484;2022-07-23T01:36:57;27.60;49.70
68766;DHT22;55756;45.582;11.484;2022-07-23T01:39:23;27.60;49.70
68766;DHT22;55756;45.582;11.484;2022-07-23T01:41:50;27.60;49.70
68766;DHT22;55756;45.582;11.484;2022-07-23T01:44:16;27.60;50.10
68766;DHT22;55756;45.582;11.484;2022-07-23T01:46:43;27.60;50.40
68766;DHT22;55756;45.582;11.484;2022-07-23T01:49:09;27.60;50.20
68766;DHT22;55756;45.582;11.484;2022-07-23T01:51:54;27.50;50.50
68766;DHT22;55756;45.582;11.484;2022-07-23T01:54:29;27.50;50.10
68766;DHT22;55756;45.582;11.484;2022-07-23T01:56:56;27.50;50.20
68766;DHT22;55756;45.582;11.484;2022-07-23T01:59:22;27.50;50.30
68766;DHT22;55756;45.582;11.484;2022-07-23T02:01:48;27.50;50.30
68766;DHT22;55756;45.582;11.484;2022-07-23T02:04:17;27.50;50.20
68766;DHT22;55756;45.582;11.484;2022-07-23T02:06:43;27.50;50.20
68766;DHT22;55756;45.582;11.484;2022-07-23T02:09:09;27.40;50.60
68766;DHT22;55756;45.582;11.484;2022-07-23T02:11:35;27.50;50.70
68766;DHT22;55756;45.582;11.484;2022-07-23T02:14:00;27.50;50.60
68766;DHT22;55756;45.582;11.484;2022-07-23T02:16:26;27.40;50.70
68766;DHT22;55756;45.582;11.484;2022-07-23T02:18:52;27.40;50.70
68766;DHT22;55756;45.582;11.484;2022-07-23T02:21:18;27.40;50.90
68766;DHT22;55756;45.582;11.484;2022-07-23T02:23:43;27.40;51.30
68766;DHT22;55756;45.582;11.484;2022-07-23T02:26:09;27.40;51.20
68766;DHT22;55756;45.582;11.484;2022-07-23T02:28:35;27.40;51.30
68766;DHT22;55756;45.582;11.484;2022-07-23T02:31:01;27.40;51.00
68766;DHT22;55756;45.582;11.484;2022-07-23T02:33:28;27.30;51.00
68766;DHT22;55756;45.582;11.484;2022-07-23T02:35:53;27.30;50.90
68766;DHT22;55756;45.582;11.484;2022-07-23T02:38:21;27.30;51.10
68766;DHT22;55756;45.582;11.484;2022-07-23T02:40:47;27.30;51.30
68766;DHT22;55756;45.582;11.484;2022-07-23T02:43:13;27.30;51.30
68766;DHT22;55756;45.582;11.484;2022-07-23T02:45:39;27.30;51.40
68766;DHT22;55756;45.582;11.484;2022-07-23T02:48:05;27.20;51.20
68766;DHT22;55756;45.582;11.484;2022-07-23T02:50:31;27.20;51.40
68766;DHT22;55756;45.582;11.484;2022-07-23T02:52:58;27.20;51.50
68766;DHT22;55756;45.582;11.484;2022-07-23T02:55:24;27.20;51.30
68766;DHT22;55756;45.582;11.484;2022-07-23T02:57:51;27.20;52.30
68766;DHT22;55756;45.582;11.484;2022-07-23T03:00:18;27.00;52.90
68766;DHT22;55756;45.582;11.484;2022-07-23T03:02:44;26.90;52.90
68766;DHT22;55756;45.582;11.484;2022-07-23T03:05:10;26.80;53.10
68766;DHT22;55756;45.582;11.484;2022-07-23T03:07:38;26.70;53.30
68766;DHT22;55756;45.582;11.484;2022-07-23T03:10:04;26.60;53.40
68766;DHT22;55756;45.582;11.484;2022-07-23T03:12:30;26.50;53.30
68766;DHT22;55756;45.582;11.484;2022-07-23T03:14:56;26.50;53.50
68766;DHT22;55756;45.582;11.484;2022-07-23T03:17:22;26.50;53.30
68766;DHT22;55756;45.582;11.484;2022-07-23T03:19:47;26.60;53.10
68766;DHT22;55756;45.582;11.484;2022-07-23T03:22:13;26.60;53.00
68766;DHT22;55756;45.582;11.484;2022-07-23T03:24:39;26.50;53.00
68766;DHT22;55756;45.582;11.484;2022-07-23T03:27:25;26.60;52.90
68766;DHT22;55756;45.582;11.484;2022-07-23T03:29:52;26.60;53.10
68766;DHT22;55756;45.582;11.484;2022-07-23T03:32:19;26.60;53.20
68766;DHT22;55756;45.582;11.484;2022-07-23T03:34:45;26.60;53.10
68766;DHT22;55756;45.582;11.484;2022-07-23T03:37:11;26.60;52.90
68766;DHT22;55756;45.582;11.484;2022-07-23T03:39:37;26.60;52.70
68766;DHT22;55756;45.582;11.484;2022-07-23T03:42:03;26.60;52.80
68766;DHT22;55756;45.582;11.484;2022-07-23T03:44:29;26.60;52.90
68766;DHT22;55756;45.582;11.484;2022-07-23T03:46:55;26.60;53.10
68766;DHT22;55756;45.582;11.484;2022-07-23T03:49:21;26.60;52.90
68766;DHT22;55756;45.582;11.484;2022-07-23T03:51:48;26.50;52.80
68766;DHT22;55756;45.582;11.484;2022-07-23T03:54:14;26.50;52.90
68766;DHT22;55756;45.582;11.484;2022-07-23T03:56:40;26.50;53.10
68766;DHT22;55756;45.582;11.484;2022-07-23T03:59:06;26.50;53.20
68766;DHT22;55756;45.582;11.484;2022-07-23T04:01:32;26.50;53.30
68766;DHT22;55756;45.582;11.484;2022-07-23T04:03:58;26.60;52.90
68766;DHT22;55756;45.582;11.484;2022-07-23T04:06:24;26.60;52.80
68766;DHT22;55756;45.582;11.484;2022-07-23T04:08:52;26.80;52.50
68766;DHT22;55756;45.582;11.484;2022-07-23T04:11:18;26.90;52.20
68766;DHT22;55756;45.582;11.484;2022-07-23T04:13:44;27.00;52.40
68766;DHT22;55756;45.582;11.484;2022-07-23T04:16:10;27.10;52.30
68766;DHT22;55756;45.582;11.484;2022-07-23T04:18:37;27.20;52.20
68766;DHT22;55756;45.582;11.484;2022-07-23T04:21:12;27.30;51.80
68766;DHT22;55756;45.582;11.484;2022-07-23T04:23:38;27.40;51.60
68766;DHT22;55756;45.582;11.484;2022-07-23T04:26:05;27.50;51.40
68766;DHT22;55756;45.582;11.484;2022-07-23T04:28:31;27.50;51.30
68766;DHT22;55756;45.582;11.484;2022-07-23T04:30:57;27.40;51.30
68766;DHT22;55756;45.582;11.484;2022-07-23T04:33:23;27.40;51.10
68766;DHT22;55756;45.582;11.484;2022-07-23T04:35:53;27.50;50.70
68766;DHT22;55756;45.582;11.484;2022-07-23T04:38:20;27.60;50.60
68766;DHT22;55756;45.582;11.484;2022-07-23T04:40:48;27.70;50.20
68766;DHT22;55756;45.582;11.484;2022-07-23T04:43:16;27.70;49.80
68766;DHT22;55756;45.582;11.484;2022-07-23T04:45:47;27.90;49.40
68766;DHT22;55756;45.582;11.484;2022-07-23T04:48:13;28.00;49.30
68766;DHT22;55756;45.582;11.484;2022-07-23T04:50:40;28.20;49.60
68766;DHT22;55756;45.582;11.484;2022-07-23T04:53:14;28.40;49.60
68766;DHT22;55756;45.582;11.484;2022-07-23T04:55:41;28.60;49.10
68766;DHT22;55756;45.582;11.484;2022-07-23T04:58:07;28.80;49.30
68766;DHT22;55756;45.582;11.484;2022-07-23T05:00:33;29.10;49.00
68766;DHT22;55756;45.582;11.484;2022-07-23T05:03:00;29.30;48.80
68766;DHT22;55756;45.582;11.484;2022-07-23T05:05:26;29.20;49.10
68766;DHT22;55756;45.582;11.484;2022-07-23T05:07:56;29.10;49.40
68766;DHT22;55756;45.582;11.484;2022-07-23T05:10:22;29.20;49.10
68766;DHT22;55756;45.582;11.484;2022-07-23T05:12:48;29.20;49.00
68766;DHT22;55756;45.582;11.484;2022-07-23T05:15:14;29.30;49.20
68766;DHT22;55756;45.582;11.484;2022-07-23T05:17:40;29.50;47.80
68766;DHT22;55756;45.582;11.484;2022-07-23T05:20:11;29.80;46.70
68766;DHT22;55756;45.582;11.484;2022-07-23T05:22:37;30.10;46.70
68766;DHT22;55756;45.582;11.484;2022-07-23T05:25:03;30.40;46.30
68766;DHT22;55756;45.582;11.484;2022-07-23T05:27:30;30.60;45.40
68766;DHT22;55756;45.582;11.484;2022-07-23T05:29:56;30.90;43.90
68766;DHT22;55756;45.582;11.484;2022-07-23T05:32:22;31.10;42.80
68766;DHT22;55756;45.582;11.484;2022-07-23T05:34:55;31.20;43.50
68766;DHT22;55756;45.582;11.484;2022-07-23T05:37:21;31.60;43.20
68766;DHT22;55756;45.582;11.484;2022-07-23T05:39:47;32.10;41.80
68766;DHT22;55756;45.582;11.484;2022-07-23T05:42:13;32.50;41.20
68766;DHT22;55756;45.582;11.484;2022-07-23T05:44:39;33.00;39.90
68766;DHT22;55756;45.582;11.484;2022-07-23T05:47:05;33.50;39.30
68766;DHT22;55756;45.582;11.484;2022-07-23T05:49:31;34.20;38.50
68766;DHT22;55756;45.582;11.484;2022-07-23T05:52:36;34.90;37.60
68766;DHT22;55756;45.582;11.484;2022-07-23T05:55:34;35.90;35.90
68766;DHT22;55756;45.582;11.484;2022-07-23T05:58:00;36.90;34.30
68766;DHT22;55756;45.582;11.484;2022-07-23T06:00:27;37.50;33.40
68766;DHT22;55756;45.582;11.484;2022-07-23T06:02:53;38.30;32.70
68766;DHT22;55756;45.582;11.484;2022-07-23T06:05:20;38.80;30.80
68766;DHT22;55756;45.582;11.484;2022-07-23T06:07:46;39.50;30.10
68766;DHT22;55756;45.582;11.484;2022-07-23T06:10:13;40.60;29.20
68766;DHT22;55756;45.582;11.484;2022-07-23T06:12:39;41.80;27.70
68766;DHT22;55756;45.582;11.484;2022-07-23T06:15:07;42.40;27.00
68766;DHT22;55756;45.582;11.484;2022-07-23T06:17:34;43.40;25.90
68766;DHT22;55756;45.582;11.484;2022-07-23T06:19:59;44.40;24.90
68766;DHT22;55756;45.582;11.484;2022-07-23T06:22:25;45.30;24.50
68766;DHT22;55756;45.582;11.484;2022-07-23T06:24:51;46.20;23.90
68766;DHT22;55756;45.582;11.484;2022-07-23T06:27:19;47.00;23.60
68766;DHT22;55756;45.582;11.484;2022-07-23T06:29:45;47.50;23.10
68766;DHT22;55756;45.582;11.484;2022-07-23T06:32:11;47.40;23.00
68766;DHT22;55756;45.582;11.484;2022-07-23T06:34:37;46.50;23.80
68766;DHT22;55756;45.582;11.484;2022-07-23T06:37:03;46.00;24.20
68766;DHT22;55756;45.582;11.484;2022-07-23T06:39:28;46.30;23.90
68766;DHT22;55756;45.582;11.484;2022-07-23T06:41:57;47.40;22.90
68766;DHT22;55756;45.582;11.484;2022-07-23T06:44:34;48.40;21.80
68766;DHT22;55756;45.582;11.484;2022-07-23T06:47:00;49.70;21.40
68766;DHT22;55756;45.582;11.484;2022-07-23T06:49:26;50.70;20.30
68766;DHT22;55756;45.582;11.484;2022-07-23T06:51:52;51.40;19.60
68766;DHT22;55756;45.582;11.484;2022-07-23T06:54:18;52.00;18.80
68766;DHT22;55756;45.582;11.484;2022-07-23T06:56:44;52.30;18.70
68766;DHT22;55756;45.582;11.484;2022-07-23T06:59:10;52.60;18.50
68766;DHT22;55756;45.582;11.484;2022-07-23T07:01:36;52.40;18.70
68766;DHT22;55756;45.582;11.484;2022-07-23T07:04:01;52.10;18.90
68766;DHT22;55756;45.582;11.484;2022-07-23T07:06:27;52.50;18.50
68766;DHT22;55756;45.582;11.484;2022-07-23T07:08:53;53.30;18.10
68766;DHT22;55756;45.582;11.484;2022-07-23T07:11:19;53.00;18.00
68766;DHT22;55756;45.582;11.484;2022-07-23T07:13:45;52.00;18.70
68766;DHT22;55756;45.582;11.484;2022-07-23T07:16:10;51.70;19.20
68766;DHT22;55756;45.582;11.484;2022-07-23T07:18:36;52.90;18.20
68766;DHT22;55756;45.582;11.484;2022-07-23T07:21:02;54.10;17.50
68766;DHT22;55756;45.582;11.484;2022-07-23T07:23:28;55.40;16.60
68766;DHT22;55756;45.582;11.484;2022-07-23T07:25:54;56.10;16.20
68766;DHT22;55756;45.582;11.484;2022-07-23T07:28:19;56.30;15.90
68766;DHT22;55756;45.582;11.484;2022-07-23T07:30:45;56.80;16.00
68766;DHT22;55756;45.582;11.484;2022-07-23T07:33:11;57.50;15.50
68766;DHT22;55756;45.582;11.484;2022-07-23T07:35:37;58.10;15.20
68766;DHT22;55756;45.582;11.484;2022-07-23T07:38:02;58.70;14.90
68766;DHT22;55756;45.582;11.484;2022-07-23T07:40:28;58.90;15.00
68766;DHT22;55756;45.582;11.484;2022-07-23T07:42:54;59.30;14.50
68766;DHT22;55756;45.582;11.484;2022-07-23T07:45:23;59.30;14.20
68766;DHT22;55756;45.582;11.484;2022-07-23T07:47:51;58.90;14.30
68766;DHT22;55756;45.582;11.484;2022-07-23T07:50:19;58.90;14.40
68766;DHT22;55756;45.582;11.484;2022-07-23T07:52:45;59.30;14.10
68766;DHT22;55756;45.582;11.484;2022-07-23T07:55:12;59.60;14.10
68766;DHT22;55756;45.582;11.484;2022-07-23T07:57:38;59.80;14.10
68766;DHT22;55756;45.582;11.484;2022-07-23T08:00:08;60.00;14.00
68766;DHT22;55756;45.582;11.484;2022-07-23T08:02:51;60.00;14.00
68766;DHT22;55756;45.582;11.484;2022-07-23T08:05:21;59.90;14.00
68766;DHT22;55756;45.582;11.484;2022-07-23T08:07:48;60.00;13.90
68766;DHT22;55756;45.582;11.484;2022-07-23T08:10:13;59.80;14.00
68766;DHT22;55756;45.582;11.484;2022-07-23T08:12:46;59.80;14.10
68766;DHT22;55756;45.582;11.484;2022-07-23T08:15:14;59.50;14.30
68766;DHT22;55756;45.582;11.484;2022-07-23T08:17:41;59.20;14.20
68766;DHT22;55756;45.582;11.484;2022-07-23T08:20:08;58.60;14.60
68766;DHT22;55756;45.582;11.484;2022-07-23T08:22:53;58.80;14.70
68766;DHT22;55756;45.582;11.484;2022-07-23T08:25:23;58.50;14.20
68766;DHT22;55756;45.582;11.484;2022-07-23T08:27:50;57.00;15.10
68766;DHT22;55756;45.582;11.484;2022-07-23T08:30:18;52.10;17.50
68766;DHT22;55756;45.582;11.484;2022-07-23T08:32:52;49.30;19.40
68766;DHT22;55756;45.582;11.484;2022-07-23T08:35:22;47.40;21.40
68766;DHT22;55756;45.582;11.484;2022-07-23T08:37:48;46.30;22.20
68766;DHT22;55756;45.582;11.484;2022-07-23T08:40:14;45.60;22.40
68766;DHT22;55756;45.582;11.484;2022-07-23T08:42:40;45.00;23.30
68766;DHT22;55756;45.582;11.484;2022-07-23T08:45:07;44.30;23.50
68766;DHT22;55756;45.582;11.484;2022-07-23T08:47:35;44.30;23.90
68766;DHT22;55756;45.582;11.484;2022-07-23T08:50:02;44.20;23.90
68766;DHT22;55756;45.582;11.484;2022-07-23T08:52:30;44.00;24.30
68766;DHT22;55756;45.582;11.484;2022-07-23T08:54:57;43.70;24.20
68766;DHT22;55756;45.582;11.484;2022-07-23T08:57:23;43.20;25.20
68766;DHT22;55756;45.582;11.484;2022-07-23T08:59:48;42.80;25.90
68766;DHT22;55756;45.582;11.484;2022-07-23T09:02:15;42.50;26.00
68766;DHT22;55756;45.582;11.484;2022-07-23T09:04:41;42.30;25.90
68766;DHT22;55756;45.582;11.484;2022-07-23T09:07:08;42.10;26.30
68766;DHT22;55756;45.582;11.484;2022-07-23T09:09:33;41.90;26.40
68766;DHT22;55756;45.582;11.484;2022-07-23T09:12:08;42.10;26.20
68766;DHT22;55756;45.582;11.484;2022-07-23T09:14:43;42.20;26.20
68766;DHT22;55756;45.582;11.484;2022-07-23T09:17:14;42.40;26.20
68766;DHT22;55756;45.582;11.484;2022-07-23T09:19:42;42.30;26.50
68766;DHT22;55756;45.582;11.484;2022-07-23T09:25:16;41.50;27.90
68766;DHT22;55756;45.582;11.484;2022-07-23T09:27:57;40.90;27.70
68766;DHT22;55756;45.582;11.484;2022-07-23T09:30:30;40.50;28.30
68766;DHT22;55756;45.582;11.484;2022-07-23T09:33:15;40.10;28.50
68766;DHT22;55756;45.582;11.484;2022-07-23T09:38:15;39.80;28.70
68766;DHT22;55756;45.582;11.484;2022-07-23T09:40:41;39.80;28.80
68766;DHT22;55756;45.582;11.484;2022-07-23T09:43:07;39.90;28.90
68766;DHT22;55756;45.582;11.484;2022-07-23T09:45:33;39.60;27.50
68766;DHT22;55756;45.582;11.484;2022-07-23T09:48:14;38.90;27.90
68766;DHT22;55756;45.582;11.484;2022-07-23T09:50:41;38.70;28.20
68766;DHT22;55756;45.582;11.484;2022-07-23T09:53:08;39.20;27.40
68766;DHT22;55756;45.582;11.484;2022-07-23T09:55:36;39.60;26.00
68766;DHT22;55756;45.582;11.484;2022-07-23T09:58:06;39.80;26.90
68766;DHT22;55756;45.582;11.484;2022-07-23T10:00:52;39.40;27.70
68766;DHT22;55756;45.582;11.484;2022-07-23T10:03:19;39.60;27.80
68766;DHT22;55756;45.582;11.484;2022-07-23T10:06:04;39.30;26.80
68766;DHT22;55756;45.582;11.484;2022-07-23T10:08:53;38.80;27.20
68766;DHT22;55756;45.582;11.484;2022-07-23T10:11:53;38.60;27.70
68766;DHT22;55756;45.582;11.484;2022-07-23T10:14:39;38.50;26.70
68766;DHT22;55756;45.582;11.484;2022-07-23T10:17:09;38.70;27.40
68766;DHT22;55756;45.582;11.484;2022-07-23T10:19:35;38.80;26.70
68766;DHT22;55756;45.582;11.484;2022-07-23T10:22:04;39.00;27.80
68766;DHT22;55756;45.582;11.484;2022-07-23T10:27:42;38.80;26.80
68766;DHT22;55756;45.582;11.484;2022-07-23T10:38:31;38.70;28.60
68766;DHT22;55756;45.582;11.484;2022-07-23T10:41:02;38.90;28.40
68766;DHT22;55756;45.582;11.484;2022-07-23T10:43:29;39.10;28.70
68766;DHT22;55756;45.582;11.484;2022-07-23T10:45:56;39.20;27.90
68766;DHT22;55756;45.582;11.484;2022-07-23T10:48:41;39.00;27.30
68766;DHT22;55756;45.582;11.484;2022-07-23T10:51:15;39.10;26.00
68766;DHT22;55756;45.582;11.484;2022-07-23T10:53:59;39.40;25.10
68766;DHT22;55756;45.582;11.484;2022-07-23T10:57:04;39.40;23.70
68766;DHT22;55756;45.582;11.484;2022-07-23T10:59:31;39.50;23.10
68766;DHT22;55756;45.582;11.484;2022-07-23T11:02:22;39.50;22.90
68766;DHT22;55756;45.582;11.484;2022-07-23T11:04:50;39.60;23.90
68766;DHT22;55756;45.582;11.484;2022-07-23T11:07:17;39.80;23.20
68766;DHT22;55756;45.582;11.484;2022-07-23T11:09:43;39.90;22.50
68766;DHT22;55756;45.582;11.484;2022-07-23T11:25:01;39.20;23.40
68766;DHT22;55756;45.582;11.484;2022-07-23T11:27:38;38.90;22.60
68766;DHT22;55756;45.582;11.484;2022-07-23T11:30:06;38.90;23.60
68766;DHT22;55756;45.582;11.484;2022-07-23T11:32:38;39.10;23.40
68766;DHT22;55756;45.582;11.484;2022-07-23T11:35:25;39.40;23.30
68766;DHT22;55756;45.582;11.484;2022-07-23T11:37:54;39.70;22.70
68766;DHT22;55756;45.582;11.484;2022-07-23T11:40:28;39.60;22.80
68766;DHT22;55756;45.582;11.484;2022-07-23T11:42:57;39.70;23.00
68766;DHT22;55756;45.582;11.484;2022-07-23T11:45:25;39.80;23.50
68766;DHT22;55756;45.582;11.484;2022-07-23T11:47:51;39.70;23.00
68766;DHT22;55756;45.582;11.484;2022-07-23T11:50:17;39.20;23.80
68766;DHT22;55756;45.582;11.484;2022-07-23T11:52:43;38.80;24.20
68766;DHT22;55756;45.582;11.484;2022-07-23T11:55:10;39.00;24.00
68766;DHT22;55756;45.582;11.484;2022-07-23T11:57:39;39.20;23.90
68766;DHT22;55756;45.582;11.484;2022-07-23T12:00:15;39.10;24.40
68766;DHT22;55756;45.582;11.484;2022-07-23T12:02:46;38.80;25.00
68766;DHT22;55756;45.582;11.484;2022-07-23T12:05:17;38.70;25.20
68766;DHT22;55756;45.582;11.484;2022-07-23T12:07:44;39.00;24.80
68766;DHT22;55756;45.582;11.484;2022-07-23T12:12:53;38.90;25.90
68766;DHT22;55756;45.582;11.484;2022-07-23T12:17:54;38.60;25.70
68766;DHT22;55756;45.582;11.484;2022-07-23T12:20:25;38.40;25.40
68766;DHT22;55756;45.582;11.484;2022-07-23T12:22:56;38.40;25.70
68766;DHT22;55756;45.582;11.484;2022-07-23T12:25:25;38.50;25.60
68766;DHT22;55756;45.582;11.484;2022-07-23T12:28:16;38.60;26.20
68766;DHT22;55756;45.582;11.484;2022-07-23T12:30:51;38.50;26.50
68766;DHT22;55756;45.582;11.484;2022-07-23T12:35:52;38.70;26.60
68766;DHT22;55756;45.582;11.484;2022-07-23T12:38:21;38.90;26.20
68766;DHT22;55756;45.582;11.484;2022-07-23T12:40:56;38.80;25.60
68766;DHT22;55756;45.582;11.484;2022-07-23T12:48:20;38.80;25.50
68766;DHT22;55756;45.582;11.484;2022-07-23T12:53:19;39.10;25.40
68766;DHT22;55756;45.582;11.484;2022-07-23T12:55:46;39.20;25.00
68766;DHT22;55756;45.582;11.484;2022-07-23T12:58:19;39.20;25.80
68766;DHT22;55756;45.582;11.484;2022-07-23T13:03:33;39.20;25.50
68766;DHT22;55756;45.582;11.484;2022-07-23T13:06:00;39.20;25.30
68766;DHT22;55756;45.582;11.484;2022-07-23T13:08:28;39.00;25.40
68766;DHT22;55756;45.582;11.484;2022-07-23T13:10:55;38.70;25.60
68766;DHT22;55756;45.582;11.484;2022-07-23T13:13:24;38.70;25.90
68766;DHT22;55756;45.582;11.484;2022-07-23T13:15:50;38.90;25.20
68766;DHT22;55756;45.582;11.484;2022-07-23T13:18:18;39.20;24.70
68766;DHT22;55756;45.582;11.484;2022-07-23T13:20:44;39.10;24.40
68766;DHT22;55756;45.582;11.484;2022-07-23T13:23:10;39.30;24.40
68766;DHT22;55756;45.582;11.484;2022-07-23T13:25:36;39.40;24.60
68766;DHT22;55756;45.582;11.484;2022-07-23T13:28:02;39.20;24.40
68766;DHT22;55756;45.582;11.484;2022-07-23T13:30:29;38.90;25.10
68766;DHT22;55756;45.582;11.484;2022-07-23T13:32:55;38.80;24.70
68766;DHT22;55756;45.582;11.484;2022-07-23T13:35:21;39.00;25.50
68766;DHT22;55756;45.582;11.484;2022-07-23T13:37:47;39.10;25.00
68766;DHT22;55756;45.582;11.484;2022-07-23T13:40:13;39.20;25.20
68766;DHT22;55756;45.582;11.484;2022-07-23T13:42:39;39.30;24.90
68766;DHT22;55756;45.582;11.484;2022-07-23T13:45:05;39.40;23.90
68766;DHT22;55756;45.582;11.484;2022-07-23T13:47:31;39.50;24.20
68766;DHT22;55756;45.582;11.484;2022-07-23T13:49:57;39.60;24.80
68766;DHT22;55756;45.582;11.484;2022-07-23T13:52:23;39.70;24.00
68766;DHT22;55756;45.582;11.484;2022-07-23T13:54:50;39.60;24.40
68766;DHT22;55756;45.582;11.484;2022-07-23T13:57:16;39.70;24.20
68766;DHT22;55756;45.582;11.484;2022-07-23T13:59:42;39.90;24.20
68766;DHT22;55756;45.582;11.484;2022-07-23T14:02:08;40.10;24.10
68766;DHT22;55756;45.582;11.484;2022-07-23T14:04:34;40.20;23.90
68766;DHT22;55756;45.582;11.484;2022-07-23T14:07:00;40.30;23.10
68766;DHT22;55756;45.582;11.484;2022-07-23T14:09:26;40.40;23.20
68766;DHT22;55756;45.582;11.484;2022-07-23T14:11:53;40.60;23.70
68766;DHT22;55756;45.582;11.484;2022-07-23T14:14:19;40.50;23.80
68766;DHT22;55756;45.582;11.484;2022-07-23T14:16:45;40.50;23.20
68766;DHT22;55756;45.582;11.484;2022-07-23T14:19:10;40.60;23.30
68766;DHT22;55756;45.582;11.484;2022-07-23T14:21:37;40.60;23.10
68766;DHT22;55756;45.582;11.484;2022-07-23T14:24:03;40.70;23.10
68766;DHT22;55756;45.582;11.484;2022-07-23T14:26:29;40.80;23.00
68766;DHT22;55756;45.582;11.484;2022-07-23T14:28:55;40.80;23.00
68766;DHT22;55756;45.582;11.484;2022-07-23T14:31:21;40.80;22.90
68766;DHT22;55756;45.582;11.484;2022-07-23T14:33:48;40.60;22.50
68766;DHT22;55756;45.582;11.484;2022-07-23T14:36:14;40.50;22.80
68766;DHT22;55756;45.582;11.484;2022-07-23T14:38:40;40.30;22.90
68766;DHT22;55756;45.582;11.484;2022-07-23T14:41:06;40.10;23.30
68766;DHT22;55756;45.582;11.484;2022-07-23T14:43:34;39.90;24.20
68766;DHT22;55756;45.582;11.484;2022-07-23T14:45:59;39.80;24.40
68766;DHT22;55756;45.582;11.484;2022-07-23T14:48:25;39.60;24.80
68766;DHT22;55756;45.582;11.484;2022-07-23T14:50:52;39.60;24.90
68766;DHT22;55756;45.582;11.484;2022-07-23T14:53:18;39.50;25.30
68766;DHT22;55756;45.582;11.484;2022-07-23T14:55:43;39.50;25.30
68766;DHT22;55756;45.582;11.484;2022-07-23T14:58:09;39.40;25.30
68766;DHT22;55756;45.582;11.484;2022-07-23T15:00:35;39.30;25.60
68766;DHT22;55756;45.582;11.484;2022-07-23T15:03:01;39.20;25.70
68766;DHT22;55756;45.582;11.484;2022-07-23T15:05:27;39.30;26.10
68766;DHT22;55756;45.582;11.484;2022-07-23T15:07:54;39.40;25.90
68766;DHT22;55756;45.582;11.484;2022-07-23T15:10:20;39.40;26.20
68766;DHT22;55756;45.582;11.484;2022-07-23T15:12:46;39.30;26.00
68766;DHT22;55756;45.582;11.484;2022-07-23T15:15:12;39.30;25.70
68766;DHT22;55756;45.582;11.484;2022-07-23T15:17:38;39.40;25.60
68766;DHT22;55756;45.582;11.484;2022-07-23T15:20:05;39.40;25.60
68766;DHT22;55756;45.582;11.484;2022-07-23T15:22:31;39.30;25.10
68766;DHT22;55756;45.582;11.484;2022-07-23T15:24:57;39.20;25.10
68766;DHT22;55756;45.582;11.484;2022-07-23T15:27:23;39.20;25.00
68766;DHT22;55756;45.582;11.484;2022-07-23T15:29:49;39.10;25.00
68766;DHT22;55756;45.582;11.484;2022-07-23T15:32:15;39.10;25.10
68766;DHT22;55756;45.582;11.484;2022-07-23T15:34:40;39.00;25.00
68766;DHT22;55756;45.582;11.484;2022-07-23T15:37:06;38.90;25.10
68766;DHT22;55756;45.582;11.484;2022-07-23T15:39:33;38.80;25.10
68766;DHT22;55756;45.582;11.484;2022-07-23T15:42:00;38.80;25.50
68766;DHT22;55756;45.582;11.484;2022-07-23T15:44:26;38.70;25.30
68766;DHT22;55756;45.582;11.484;2022-07-23T15:46:52;38.60;25.10
68766;DHT22;55756;45.582;11.484;2022-07-23T15:49:18;38.50;25.30
68766;DHT22;55756;45.582;11.484;2022-07-23T15:51:44;38.50;25.60
68766;DHT22;55756;45.582;11.484;2022-07-23T15:54:10;38.60;25.80
68766;DHT22;55756;45.582;11.484;2022-07-23T15:56:36;38.60;25.90
68766;DHT22;55756;45.582;11.484;2022-07-23T15:59:02;38.50;26.00
68766;DHT22;55756;45.582;11.484;2022-07-23T16:01:27;38.40;26.20
68766;DHT22;55756;45.582;11.484;2022-07-23T16:03:57;38.40;26.50
68766;DHT22;55756;45.582;11.484;2022-07-23T16:06:26;38.40;26.70
68766;DHT22;55756;45.582;11.484;2022-07-23T16:08:52;38.40;26.90